Time,TemperatureF,DewpointF,PressureIn,WindDirection,WindDirectionDegrees,WindSpeedMPH,WindSpeedGustMPH,Humidity,HourlyPrecipIn,Conditions,Clouds,dailyrainin,SoftwareType,DateUTC
2013-01-24 00:03:00,17.0,-99.9,30.18,NW,308,7.0,9.0,-999,-99.99,,,-99.99,,2013-01-24 05:03:00,
2013-01-24 00:12:00,-999.0,-99.9,-100.00,NW,311,7.0,9.0,-999,-99.99,,,-99.99,,2013-01-24 05:12:00,
2013-01-24 00:23:00,-999.0,-99.9,-100.00,NW,310,7.0,10.0,-999,-99.99,,,-99.99,,2013-01-24 05:23:00,
2013-01-24 00:33:00,17.0,-99.9,30.17,NW,307,6.0,9.0,-999,-99.99,,,-99.99,,2013-01-24 05:33:00,
2013-01-24 00:43:00,-999.0,-99.9,-100.00,NW,322,5.0,9.0,-999,-99.99,,,-99.99,,2013-01-24 05:43:00,
2013-01-24 00:53:00,-999.0,-99.9,-100.00,NW,314,5.0,8.0,-999,-99.99,,,-99.99,,2013-01-24 05:53:00,
2013-01-24 01:03:00,17.0,-99.9,30.16,WNW,299,7.0,9.0,-999,-99.99,,,-99.99,,2013-01-24 06:03:00,
2013-01-24 01:12:00,-999.0,-99.9,-100.00,NW,325,6.0,9.0,-999,-99.99,,,-99.99,,2013-01-24 06:12:00,
2013-01-24 01:22:00,-999.0,-99.9,-100.00,NW,317,8.0,10.0,-999,-99.99,,,-99.99,,2013-01-24 06:22:00,
2013-01-24 01:33:00,16.0,-99.9,30.15,NW,319,4.0,8.0,-999,-99.99,,,-99.99,,2013-01-24 06:33:00,
2013-01-24 01:43:00,-999.0,-99.9,-100.00,NW,313,4.0,8.0,-999,-99.99,,,-99.99,,2013-01-24 06:43:00,
2013-01-24 01:53:00,-999.0,-99.9,-100.00,NNE,20,5.0,8.0,-999,-99.99,,,-99.99,,2013-01-24 06:53:00,
2013-01-24 02:03:00,17.0,-99.9,30.14,NNE,23,5.0,11.0,-999,-99.99,,,-99.99,,2013-01-24 07:03:00,
2013-01-24 02:13:00,-999.0,-99.9,-100.00,NNE,12,6.0,11.0,-999,-99.99,,,-99.99,,2013-01-24 07:13:00,
2013-01-24 02:23:00,-999.0,-99.9,-100.00,North,6,6.0,9.0,-999,-99.99,,,-99.99,,2013-01-24 07:23:00,
2013-01-24 02:34:00,16.0,-99.9,30.13,North,5,7.0,9.0,-999,-99.99,,,-99.99,,2013-01-24 07:34:00,
2013-01-24 02:43:00,-999.0,-99.9,-100.00,North,10,5.0,9.0,-999,-99.99,,,-99.99,,2013-01-24 07:43:00,
2013-01-24 02:53:00,-999.0,-99.9,-100.00,NNE,21,5.0,9.0,-999,-99.99,,,-99.99,,2013-01-24 07:53:00,
2013-01-24 03:03:00,16.0,-99.9,30.13,NNE,16,6.0,9.0,-999,-99.99,,,-99.99,,2013-01-24 08:03:00,
2013-01-24 03:13:00,-999.0,-99.9,-100.00,NNE,21,6.0,8.0,-999,-99.99,,,-99.99,,2013-01-24 08:13:00,
2013-01-24 03:23:00,-999.0,-99.9,-100.00,NNE,15,7.0,11.0,-999,-99.99,,,-99.99,,2013-01-24 08:23:00,
2013-01-24 03:33:00,-999.0,-99.9,-100.00,North,11,6.0,10.0,-999,-99.99,,,-99.99,,2013-01-24 08:33:00,
2013-01-24 03:43:00,-999.0,-99.9,-100.00,North,10,7.0,11.0,-999,-99.99,,,-99.99,,2013-01-24 08:43:00,
2013-01-24 03:53:00,-999.0,-99.9,-100.00,NNE,16,6.0,9.0,-999,-99.99,,,-99.99,,2013-01-24 08:53:00,
2013-01-24 04:03:00,16.0,-99.9,30.12,NNE,15,7.0,10.0,-999,-99.99,,,-99.99,,2013-01-24 09:03:00,
2013-01-24 04:13:00,-999.0,-99.9,-100.00,North,10,7.0,11.0,-999,-99.99,,,-99.99,,2013-01-24 09:13:00,
2013-01-24 04:23:00,-999.0,-99.9,-100.00,North,11,7.0,11.0,-999,-99.99,,,-99.99,,2013-01-24 09:23:00,
2013-01-24 04:34:00,16.0,-99.9,30.12,NNE,16,6.0,11.0,-999,-99.99,,,-99.99,,2013-01-24 09:34:00,
2013-01-24 04:43:00,-999.0,-99.9,-100.00,NNE,18,7.0,11.0,-999,-99.99,,,-99.99,,2013-01-24 09:43:00,
2013-01-24 04:53:00,-999.0,-99.9,-100.00,NNE,14,7.0,12.0,-999,-99.99,,,-99.99,,2013-01-24 09:53:00,
2013-01-24 05:03:00,16.0,-99.9,30.12,NNE,19,8.0,12.0,-999,-99.99,,,-99.99,,2013-01-24 10:03:00,
2013-01-24 05:13:00,-999.0,-99.9,-100.00,NNE,17,7.0,11.0,-999,-99.99,,,-99.99,,2013-01-24 10:13:00,
2013-01-24 05:23:00,-999.0,-99.9,-100.00,NNE,19,6.0,14.0,-999,-99.99,,,-99.99,,2013-01-24 10:23:00,
2013-01-24 05:34:00,16.0,-99.9,30.13,NNE,27,6.0,12.0,-999,-99.99,,,-99.99,,2013-01-24 10:34:00,
2013-01-24 05:44:00,-999.0,-99.9,-100.00,NNE,15,9.0,12.0,-999,-99.99,,,-99.99,,2013-01-24 10:44:00,
2013-01-24 05:53:00,-999.0,-99.9,-100.00,NNE,17,8.0,12.0,-999,-99.99,,,-99.99,,2013-01-24 10:53:00,
2013-01-24 06:03:00,16.0,-99.9,30.14,NNE,15,7.0,13.0,-999,-99.99,,,-99.99,,2013-01-24 11:03:00,
2013-01-24 06:13:00,-999.0,-99.9,-100.00,NNE,14,6.0,11.0,-999,-99.99,,,-99.99,,2013-01-24 11:13:00,
2013-01-24 06:23:00,-999.0,-99.9,-100.00,NNE,22,7.0,13.0,-999,-99.99,,,-99.99,,2013-01-24 11:23:00,
2013-01-24 06:34:00,16.0,-99.9,30.15,NNE,14,8.0,12.0,-999,-99.99,,,-99.99,,2013-01-24 11:34:00,
2013-01-24 06:43:00,-999.0,-99.9,-100.00,NNE,21,9.0,13.0,-999,-99.99,,,-99.99,,2013-01-24 11:43:00,
2013-01-24 06:53:00,-999.0,-99.9,-100.00,NNE,16,10.0,14.0,-999,-99.99,,,-99.99,,2013-01-24 11:53:00,
2013-01-24 07:03:00,16.0,-99.9,30.16,NNE,14,9.0,13.0,-999,-99.99,,,-99.99,,2013-01-24 12:03:00,
2013-01-24 07:12:00,-999.0,-99.9,-100.00,NNE,17,11.0,13.0,-999,-99.99,,,-99.99,,2013-01-24 12:12:00,
2013-01-24 07:23:00,-999.0,-99.9,-100.00,NNE,22,8.0,14.0,-999,-99.99,,,-99.99,,2013-01-24 12:23:00,
2013-01-24 07:33:00,15.0,-99.9,30.16,NNE,15,8.0,12.0,-999,-99.99,,,-99.99,,2013-01-24 12:33:00,
2013-01-24 07:43:00,-999.0,-99.9,-100.00,NNE,16,9.0,13.0,-999,-99.99,,,-99.99,,2013-01-24 12:43:00,
2013-01-24 07:53:00,-999.0,-99.9,-100.00,NNE,16,6.0,10.0,-999,-99.99,,,-99.99,,2013-01-24 12:53:00,
2013-01-24 08:03:00,15.0,-99.9,30.17,NNE,21,5.0,11.0,-999,-99.99,,,-99.99,,2013-01-24 13:03:00,
2013-01-24 08:13:00,-999.0,-99.9,-100.00,NNE,17,9.0,14.0,-999,-99.99,,,-99.99,,2013-01-24 13:13:00,
2013-01-24 08:23:00,-999.0,-99.9,-100.00,NNE,12,6.0,14.0,-999,-99.99,,,-99.99,,2013-01-24 13:23:00,
2013-01-24 08:33:00,15.0,-99.9,30.18,NNE,13,7.0,13.0,-999,-99.99,,,-99.99,,2013-01-24 13:33:00,
2013-01-24 08:43:00,-999.0,-99.9,-100.00,NNE,12,11.0,15.0,-999,-99.99,,,-99.99,,2013-01-24 13:43:00,
2013-01-24 08:53:00,-999.0,-99.9,-100.00,NNE,15,9.0,15.0,-999,-99.99,,,-99.99,,2013-01-24 13:53:00,
2013-01-24 09:03:00,15.0,-99.9,30.19,NNE,14,9.0,14.0,-999,-99.99,,,-99.99,,2013-01-24 14:03:00,
2013-01-24 09:13:00,-999.0,-99.9,-100.00,NNE,15,10.0,15.0,-999,-99.99,,,-99.99,,2013-01-24 14:13:00,
2013-01-24 09:23:00,-999.0,-99.9,-100.00,NNE,19,11.0,17.0,-999,-99.99,,,-99.99,,2013-01-24 14:23:00,
2013-01-24 09:33:00,-999.0,-99.9,-100.00,North,9,13.0,19.0,-999,-99.99,,,-99.99,,2013-01-24 14:33:00,
2013-01-24 09:44:00,-999.0,-99.9,-100.00,NNE,14,12.0,16.0,-999,-99.99,,,-99.99,,2013-01-24 14:44:00,
2013-01-24 09:54:00,-999.0,-99.9,-100.00,North,8,13.0,17.0,-999,-99.99,,,-99.99,,2013-01-24 14:54:00,
2013-01-24 10:04:00,18.0,-99.9,30.20,NNE,12,14.0,18.0,-999,-99.99,,,-99.99,,2013-01-24 15:04:00,
2013-01-24 10:13:00,-999.0,-99.9,-100.00,North,7,15.0,21.0,-999,-99.99,,,-99.99,,2013-01-24 15:13:00,
2013-01-24 10:24:00,-999.0,-99.9,-100.00,North,5,18.0,24.0,-999,-99.99,,,-99.99,,2013-01-24 15:24:00,
2013-01-24 10:33:00,-999.0,-99.9,-100.00,North,5,18.0,24.0,-999,-99.99,,,-99.99,,2013-01-24 15:33:00,
2013-01-24 10:43:00,-999.0,-99.9,-100.00,NNE,17,13.0,20.0,-999,-99.99,,,-99.99,,2013-01-24 15:43:00,
2013-01-24 10:53:00,-999.0,-99.9,-100.00,North,3,18.0,23.0,-999,-99.99,,,-99.99,,2013-01-24 15:53:00,
2013-01-24 11:04:00,-999.0,-99.9,-100.00,North,10,14.0,23.0,-999,-99.99,,,-99.99,,2013-01-24 16:04:00,
2013-01-24 11:12:00,-999.0,-99.9,-100.00,NNE,13,13.0,21.0,-999,-99.99,,,-99.99,,2013-01-24 16:12:00,
2013-01-24 11:23:00,-999.0,-99.9,-100.00,NNE,15,14.0,21.0,-999,-99.99,,,-99.99,,2013-01-24 16:23:00,
2013-01-24 11:33:00,20.0,-99.9,30.22,NNE,14,13.0,20.0,-999,-99.99,,,-99.99,,2013-01-24 16:33:00,
2013-01-24 11:43:00,-999.0,-99.9,-100.00,North,10,14.0,22.0,-999,-99.99,,,-99.99,,2013-01-24 16:43:00,
2013-01-24 12:03:00,-999.0,-99.9,-100.00,North,2,14.0,23.0,-999,-99.99,,,-99.99,,2013-01-24 17:03:00,
2013-01-24 12:12:00,-999.0,-99.9,-100.00,North,10,15.0,19.0,-999,-99.99,,,-99.99,,2013-01-24 17:12:00,
2013-01-24 12:22:00,-999.0,-99.9,-100.00,North,10,15.0,19.0,-999,-99.99,,,-99.99,,2013-01-24 17:22:00,
2013-01-24 12:33:00,21.0,-99.9,30.20,North,355,27.0,32.0,-999,-99.99,,,-99.99,,2013-01-24 17:33:00,
2013-01-24 12:43:00,-999.0,-99.9,-100.00,North,351,21.0,31.0,-999,-99.99,,,-99.99,,2013-01-24 17:43:00,
2013-01-24 12:53:00,-999.0,-99.9,-100.00,North,7,22.0,28.0,-999,-99.99,,,-99.99,,2013-01-24 17:53:00,
2013-01-24 13:03:00,21.0,-99.9,30.20,North,355,27.0,33.0,-999,-99.99,,,-99.99,,2013-01-24 18:03:00,
2013-01-24 13:13:00,-999.0,-99.9,-100.00,North,7,22.0,34.0,-999,-99.99,,,-99.99,,2013-01-24 18:13:00,
2013-01-24 13:23:00,-999.0,-99.9,-100.00,North,359,21.0,32.0,-999,-99.99,,,-99.99,,2013-01-24 18:23:00,
2013-01-24 13:33:00,23.0,-99.9,30.20,North,2,23.0,32.0,-999,-99.99,,,-99.99,,2013-01-24 18:33:00,
2013-01-24 13:43:00,-999.0,-99.9,-100.00,North,-999,25.0,34.0,-999,-99.99,,,-99.99,,2013-01-24 18:43:00,
2013-01-24 13:54:00,-999.0,-99.9,-100.00,North,360,28.0,36.0,-999,-99.99,,,-99.99,,2013-01-24 18:54:00,
2013-01-24 14:02:00,23.0,-99.9,30.20,North,358,25.0,35.0,-999,-99.99,,,-99.99,,2013-01-24 19:02:00,
2013-01-24 14:13:00,-999.0,-99.9,-100.00,NNE,13,24.0,34.0,-999,-99.99,,,-99.99,,2013-01-24 19:13:00,
2013-01-24 14:22:00,-999.0,-99.9,-100.00,North,6,28.0,34.0,-999,-99.99,,,-99.99,,2013-01-24 19:22:00,
2013-01-24 14:33:00,23.0,-99.9,30.20,North,8,23.0,35.0,-999,-99.99,,,-99.99,,2013-01-24 19:33:00,
2013-01-24 14:42:00,-999.0,-99.9,-100.00,North,9,21.0,35.0,-999,-99.99,,,-99.99,,2013-01-24 19:42:00,
2013-01-24 14:53:00,-999.0,-99.9,-100.00,North,6,25.0,34.0,-999,-99.99,,,-99.99,,2013-01-24 19:53:00,
2013-01-24 15:03:00,22.0,-99.9,30.22,North,3,28.0,35.0,-999,-99.99,,,-99.99,,2013-01-24 20:03:00,
2013-01-24 15:12:00,-999.0,-99.9,-100.00,North,6,26.0,34.0,-999,-99.99,,,-99.99,,2013-01-24 20:12:00,
2013-01-24 15:23:00,-999.0,-99.9,-100.00,NNE,14,22.0,32.0,-999,-99.99,,,-99.99,,2013-01-24 20:23:00,
2013-01-24 15:33:00,23.0,-99.9,30.23,NNE,14,21.0,32.0,-999,-99.99,,,-99.99,,2013-01-24 20:33:00,
2013-01-24 15:43:00,-999.0,-99.9,-100.00,North,8,18.0,25.0,-999,-99.99,,,-99.99,,2013-01-24 20:43:00,
2013-01-24 15:53:00,-999.0,-99.9,-100.00,North,4,21.0,28.0,-999,-99.99,,,-99.99,,2013-01-24 20:53:00,
2013-01-24 16:03:00,23.0,-99.9,30.24,NNW,348,19.0,23.0,-999,-99.99,,,-99.99,,2013-01-24 21:03:00,
2013-01-24 16:13:00,-999.0,-99.9,-100.00,NNW,341,20.0,28.0,-999,-99.99,,,-99.99,,2013-01-24 21:13:00,
2013-01-24 16:23:00,-999.0,-99.9,-100.00,NNE,12,19.0,26.0,-999,-99.99,,,-99.99,,2013-01-24 21:23:00,
2013-01-24 16:33:00,-999.0,-99.9,-100.00,North,2,20.0,28.0,-999,-99.99,,,-99.99,,2013-01-24 21:33:00,
2013-01-24 16:44:00,-999.0,-99.9,-100.00,NNW,330,17.0,26.0,-999,-99.99,,,-99.99,,2013-01-24 21:44:00,
2013-01-24 16:53:00,-999.0,-99.9,-100.00,NNW,333,18.0,30.0,-999,-99.99,,,-99.99,,2013-01-24 21:53:00,
2013-01-24 17:03:00,23.0,-99.9,30.27,NNW,343,20.0,29.0,-999,-99.99,,,-99.99,,2013-01-24 22:03:00,
2013-01-24 17:12:00,-999.0,-99.9,-100.00,NNW,335,18.0,30.0,-999,-99.99,,,-99.99,,2013-01-24 22:12:00,
2013-01-24 17:23:00,-999.0,-99.9,-100.00,NNW,330,21.0,26.0,-999,-99.99,,,-99.99,,2013-01-24 22:23:00,
2013-01-24 17:33:00,22.0,-99.9,30.28,NNW,335,18.0,23.0,-999,-99.99,,,-99.99,,2013-01-24 22:33:00,
2013-01-24 17:43:00,-999.0,-99.9,-100.00,North,350,21.0,27.0,-999,-99.99,,,-99.99,,2013-01-24 22:43:00,
2013-01-24 17:53:00,-999.0,-99.9,-100.00,NNW,333,20.0,28.0,-999,-99.99,,,-99.99,,2013-01-24 22:53:00,
2013-01-24 18:03:00,22.0,-99.9,30.29,North,349,18.0,27.0,-999,-99.99,,,-99.99,,2013-01-24 23:03:00,
2013-01-24 18:13:00,-999.0,-99.9,-100.00,NNW,340,19.0,26.0,-999,-99.99,,,-99.99,,2013-01-24 23:13:00,
2013-01-24 18:22:00,-999.0,-99.9,-100.00,NW,322,28.0,32.0,-999,-99.99,,,-99.99,,2013-01-24 23:22:00,
2013-01-24 18:32:00,22.0,-99.9,30.32,NNW,342,24.0,30.0,-999,-99.99,,,-99.99,,2013-01-24 23:32:00,
2013-01-24 18:43:00,-999.0,-99.9,-100.00,NNW,346,17.0,29.0,-999,-99.99,,,-99.99,,2013-01-24 23:43:00,
2013-01-24 18:53:00,-999.0,-99.9,-100.00,NNW,331,18.0,24.0,-999,-99.99,,,-99.99,,2013-01-24 23:53:00,
2013-01-24 19:02:00,22.0,-99.9,30.33,NW,316,22.0,27.0,-999,-99.99,,,-99.99,,2013-01-25 00:02:00,
2013-01-24 19:12:00,-999.0,-99.9,-100.00,NNW,339,13.0,23.0,-999,-99.99,,,-99.99,,2013-01-25 00:12:00,
2013-01-24 19:22:00,-999.0,-99.9,-100.00,NNW,333,14.0,21.0,-999,-99.99,,,-99.99,,2013-01-25 00:22:00,
2013-01-24 19:32:00,21.0,-99.9,30.34,NW,313,23.0,28.0,-999,-99.99,,,-99.99,,2013-01-25 00:32:00,
2013-01-24 19:42:00,-999.0,-99.9,-100.00,NW,326,22.0,31.0,-999,-99.99,,,-99.99,,2013-01-25 00:42:00,
2013-01-24 19:53:00,-999.0,-99.9,-100.00,NNW,334,22.0,27.0,-999,-99.99,,,-99.99,,2013-01-25 00:53:00,
2013-01-24 20:02:00,20.0,-99.9,30.36,NNW,347,21.0,30.0,-999,-99.99,,,-99.99,,2013-01-25 01:02:00,
2013-01-24 20:13:00,-999.0,-99.9,-100.00,NW,325,22.0,28.0,-999,-99.99,,,-99.99,,2013-01-25 01:13:00,
2013-01-24 20:22:00,-999.0,-99.9,-100.00,NW,319,21.0,24.0,-999,-99.99,,,-99.99,,2013-01-25 01:22:00,
2013-01-24 20:32:00,20.0,-99.9,30.36,NNW,330,22.0,27.0,-999,-99.99,,,-99.99,,2013-01-25 01:32:00,
2013-01-24 20:43:00,-999.0,-99.9,-100.00,NW,306,21.0,24.0,-999,-99.99,,,-99.99,,2013-01-25 01:43:00,
2013-01-24 20:52:00,-999.0,-99.9,-100.00,NNW,330,19.0,27.0,-999,-99.99,,,-99.99,,2013-01-25 01:52:00,
2013-01-24 21:03:00,19.0,-99.9,30.35,NW,325,19.0,27.0,-999,-99.99,,,-99.99,,2013-01-25 02:03:00,
2013-01-24 21:12:00,-999.0,-99.9,-100.00,NNW,333,18.0,24.0,-999,-99.99,,,-99.99,,2013-01-25 02:12:00,
2013-01-24 21:22:00,-999.0,-99.9,-100.00,NNW,327,20.0,29.0,-999,-99.99,,,-99.99,,2013-01-25 02:22:00,
2013-01-24 21:33:00,20.0,-99.9,30.35,NNW,329,18.0,25.0,-999,-99.99,,,-99.99,,2013-01-25 02:33:00,
2013-01-24 21:43:00,-999.0,-99.9,-100.00,NNW,337,19.0,30.0,-999,-99.99,,,-99.99,,2013-01-25 02:43:00,
2013-01-24 21:53:00,-999.0,-99.9,-100.00,NW,326,14.0,21.0,-999,-99.99,,,-99.99,,2013-01-25 02:53:00,
2013-01-24 22:02:00,19.0,-99.9,30.36,NNW,329,21.0,25.0,-999,-99.99,,,-99.99,,2013-01-25 03:02:00,
2013-01-24 22:12:00,-999.0,-99.9,-100.00,NNW,343,20.0,29.0,-999,-99.99,,,-99.99,,2013-01-25 03:12:00,
2013-01-24 22:22:00,-999.0,-99.9,-100.00,NNW,334,17.0,26.0,-999,-99.99,,,-99.99,,2013-01-25 03:22:00,
2013-01-24 22:33:00,19.0,-99.9,30.36,NNW,338,16.0,27.0,-999,-99.99,,,-99.99,,2013-01-25 03:33:00,
2013-01-24 22:42:00,-999.0,-99.9,-100.00,NNW,334,19.0,27.0,-999,-99.99,,,-99.99,,2013-01-25 03:42:00,
2013-01-24 22:53:00,-999.0,-99.9,-100.00,NNW,345,21.0,29.0,-999,-99.99,,,-99.99,,2013-01-25 03:53:00,
2013-01-24 23:02:00,18.0,-99.9,30.36,NNW,330,23.0,30.0,-999,-99.99,,,-99.99,,2013-01-25 04:02:00,
2013-01-24 23:12:00,-999.0,-99.9,-100.00,NNW,331,18.0,23.0,-999,-99.99,,,-99.99,,2013-01-25 04:12:00,
2013-01-24 23:23:00,-999.0,-99.9,-100.00,NNW,328,20.0,26.0,-999,-99.99,,,-99.99,,2013-01-25 04:23:00,
2013-01-24 23:32:00,18.0,-99.9,30.37,NNW,328,15.0,22.0,-999,-99.99,,,-99.99,,2013-01-25 04:32:00,
2013-01-24 23:42:00,-999.0,-99.9,-100.00,NNW,339,14.0,23.0,-999,-99.99,,,-99.99,,2013-01-25 04:42:00,
2013-01-24 23:52:00,-999.0,-99.9,-100.00,North,355,13.0,24.0,-999,-99.99,,,-99.99,,2013-01-25 04:52:00,